Seacod — DDPW — position and weather

sailwx.info

Track history (hours):
 
Tides and Currents Weather Stations Pressure Air Temp Water Temp Dewpoint Dewpoint Depression Visibility Wind Speed Wind Dir Waves Ship Positions

Seacod

Last reported at 2014-Dec-17 15:33 UTC. Time now 2014-Dec-21 00:28 UTC.
Position N 55°34' E 015°15'.

Length 188 m; draft 6.4 m.

Type: Ship. MMSI: 218019000.

Date/timePositionNaut miles runAvg speedWind from/ knotsBaromVisibWave heightAir tempDewpointWater temp
2014-Dec-17 15:33N 55°34' E 015°15'1313.4
2014-Dec-17 14:33N 55°28' E 014°54'1413.6
2014-Dec-17 13:33N 55°20' E 014°35'1313.4
2014-Dec-17 12:33N 55°11' E 014°18'1413.8
2014-Dec-17 11:34N 55°10' E 013°54'1914.2
2014-Dec-17 10:12N 55°13' E 013°21'913.7
2014-Dec-17 09:34N 55°14' E 013°05'1413.7
2014-Dec-17 08:33N 55°17' E 012°42'1110.9
2014-Dec-17 07:33N 55°28' E 012°41'1110.6
2014-Dec-17 06:33N 55°38' E 012°42'1413.7
2014-Dec-17 05:33N 55°52' E 012°41'1414.0
2014-Dec-17 04:33N 56°06' E 012°34'1413.8
2014-Dec-17 03:34N 56°14' E 012°14'1712.7
2014-Dec-17 02:14N 56°28' E 011°58'912.9
2014-Dec-17 01:34N 56°37' E 011°55'1313.2
2014-Dec-17 00:34N 56°49' E 011°50'1413.5
2014-Dec-16 23:32N 57°02' E 011°41'1312.9
2014-Dec-16 22:33N 57°14' E 011°33'1313.0
2014-Dec-16 21:34N 57°26' E 011°24'1313.3
2014-Dec-16 20:33N 57°36' E 011°07'1313.0
2014-Dec-16 19:32N 57°45' E 010°49'28012.0
2014-Dec-15 20:16N 54°19' E 005°09'1012.0
2014-Dec-15 19:28N 54°11' E 005°02'1111.8
2014-Dec-15 18:31N 54°00' E 004°56'1211.7
2014-Dec-15 17:32N 53°49' E 004°54'1111.3
2014-Dec-15 16:33N 53°38' E 004°51'1211.5
2014-Dec-15 15:33N 53°27' E 004°44'1211.4
2014-Dec-15 14:31N 53°16' E 004°36'1211.7
2014-Dec-15 13:32N 53°06' E 004°27'1212.1
2014-Dec-15 12:33N 52°55' E 004°18'1312.6
2014-Dec-15 11:33N 52°45' E 004°06'1313.2
2014-Dec-15 10:33N 52°35' E 003°51'1413.5
2014-Dec-15 09:29N 52°25' E 003°35'5513.8
2014-Dec-15 05:30N 51°45' E 002°35'1313.2
2014-Dec-15 04:32N 51°35' E 002°21'1312.7
2014-Dec-15 03:31N 51°24' E 002°11'1212.2
2014-Dec-15 02:34N 51°13' E 002°03'1312.6
2014-Dec-15 01:34N 51°06' E 001°46'1212.4
2014-Dec-15 00:34N 50°57' E 001°32'  
2014-Dec-10 02:23N 50°29' W 000°01'9 8.7
2014-Dec-10 01:24N 50°31' E 000°12'6 7.3
2014-Dec-10 00:33N 50°32' E 000°21'8 6.8
2014-Dec-09 23:23N 50°35' E 000°34'6 7.3
2014-Dec-09 22:34N 50°38' E 000°42'8 8.2
2014-Dec-09 21:33N 50°42' E 000°52'2211.0
2014-Dec-09 19:34N 50°56' E 001°19'1211.9
2014-Dec-09 18:34N 51°05' E 001°33'1111.1
2014-Dec-09 17:34N 51°13' E 001°45'1110.6
2014-Dec-09 16:34N 51°22' E 001°53'1010.3
2014-Dec-09 15:33N 51°31' E 002°01'1110.5
2014-Dec-09 14:33N 51°40' E 002°09'38111.9
2014-Dec-08 06:33N 57°02' E 007°60'10 9.9
2014-Dec-08 05:32N 57°10' E 008°11'8110.1
2014-Dec-07 21:33N 57°49' E 010°21'1111.3
2014-Dec-07 20:33N 57°49' E 010°43'1111.3
2014-Dec-07 19:33N 57°43' E 011°00'1313.1
2014-Dec-07 18:33N 57°33' E 011°17'1312.8
2014-Dec-07 17:33N 57°22' E 011°30'1312.7
2014-Dec-07 16:33N 57°10' E 011°38'  
Track history (hours):
 
Tides and Currents Weather Stations Pressure Air Temp Water Temp Dewpoint Dewpoint Depression Visibility Wind Speed Wind Dir Waves Ship Positions

Seacod

Last reported at 2014-Dec-17 15:33 UTC. Time now 2014-Dec-21 00:28 UTC.
Position N 55°34' E 015°15'.

Length 188 m; draft 6.4 m.

Type: Ship. MMSI: 218019000.

Date/timePositionNaut miles runAvg speedWind from/ knotsBaromVisibWave heightAir tempDewpointWater temp
2014-Dec-17 15:33N 55°34' E 015°15'1313.4
2014-Dec-17 14:33N 55°28' E 014°54'1413.6
2014-Dec-17 13:33N 55°20' E 014°35'1313.4
2014-Dec-17 12:33N 55°11' E 014°18'1413.8
2014-Dec-17 11:34N 55°10' E 013°54'1914.2
2014-Dec-17 10:12N 55°13' E 013°21'913.7
2014-Dec-17 09:34N 55°14' E 013°05'1413.7
2014-Dec-17 08:33N 55°17' E 012°42'1110.9
2014-Dec-17 07:33N 55°28' E 012°41'1110.6
2014-Dec-17 06:33N 55°38' E 012°42'1413.7
2014-Dec-17 05:33N 55°52' E 012°41'1414.0
2014-Dec-17 04:33N 56°06' E 012°34'1413.8
2014-Dec-17 03:34N 56°14' E 012°14'1712.7
2014-Dec-17 02:14N 56°28' E 011°58'912.9
2014-Dec-17 01:34N 56°37' E 011°55'1313.2
2014-Dec-17 00:34N 56°49' E 011°50'1413.5
2014-Dec-16 23:32N 57°02' E 011°41'1312.9
2014-Dec-16 22:33N 57°14' E 011°33'1313.0
2014-Dec-16 21:34N 57°26' E 011°24'1313.3
2014-Dec-16 20:33N 57°36' E 011°07'1313.0
2014-Dec-16 19:32N 57°45' E 010°49'28012.0
2014-Dec-15 20:16N 54°19' E 005°09'1012.0
2014-Dec-15 19:28N 54°11' E 005°02'1111.8
2014-Dec-15 18:31N 54°00' E 004°56'1211.7
2014-Dec-15 17:32N 53°49' E 004°54'1111.3
2014-Dec-15 16:33N 53°38' E 004°51'1211.5
2014-Dec-15 15:33N 53°27' E 004°44'1211.4
2014-Dec-15 14:31N 53°16' E 004°36'1211.7
2014-Dec-15 13:32N 53°06' E 004°27'1212.1
2014-Dec-15 12:33N 52°55' E 004°18'1312.6
2014-Dec-15 11:33N 52°45' E 004°06'1313.2
2014-Dec-15 10:33N 52°35' E 003°51'1413.5
2014-Dec-15 09:29N 52°25' E 003°35'5513.8
2014-Dec-15 05:30N 51°45' E 002°35'1313.2
2014-Dec-15 04:32N 51°35' E 002°21'1312.7
2014-Dec-15 03:31N 51°24' E 002°11'1212.2
2014-Dec-15 02:34N 51°13' E 002°03'1312.6
2014-Dec-15 01:34N 51°06' E 001°46'1212.4
2014-Dec-15 00:34N 50°57' E 001°32'  
2014-Dec-10 02:23N 50°29' W 000°01'9 8.7
2014-Dec-10 01:24N 50°31' E 000°12'6 7.3
2014-Dec-10 00:33N 50°32' E 000°21'8 6.8
2014-Dec-09 23:23N 50°35' E 000°34'6 7.3
2014-Dec-09 22:34N 50°38' E 000°42'8 8.2
2014-Dec-09 21:33N 50°42' E 000°52'2211.0
2014-Dec-09 19:34N 50°56' E 001°19'1211.9
2014-Dec-09 18:34N 51°05' E 001°33'1111.1
2014-Dec-09 17:34N 51°13' E 001°45'1110.6
2014-Dec-09 16:34N 51°22' E 001°53'1010.3
2014-Dec-09 15:33N 51°31' E 002°01'1110.5
2014-Dec-09 14:33N 51°40' E 002°09'38111.9
2014-Dec-08 06:33N 57°02' E 007°60'10 9.9
2014-Dec-08 05:32N 57°10' E 008°11'8110.1
2014-Dec-07 21:33N 57°49' E 010°21'1111.3
2014-Dec-07 20:33N 57°49' E 010°43'1111.3
2014-Dec-07 19:33N 57°43' E 011°00'1313.1
2014-Dec-07 18:33N 57°33' E 011°17'1312.8
2014-Dec-07 17:33N 57°22' E 011°30'1312.7
2014-Dec-07 16:33N 57°10' E 011°38'  

Dump ship's entire track history